sensor_id;sensor_type;location;lat;lon;timestamp;P1;durP1;ratioP1;P2;durP2;ratioP2
33006;SDS011;19361;51.598;7.650;2024-01-30T00:02:35;10.93;;;8.70;;
33006;SDS011;19361;51.598;7.650;2024-01-30T00:07:36;11.15;;;9.07;;
33006;SDS011;19361;51.598;7.650;2024-01-30T00:12:36;12.55;;;10.68;;
33006;SDS011;19361;51.598;7.650;2024-01-30T00:17:37;10.80;;;9.60;;
33006;SDS011;19361;51.598;7.650;2024-01-30T00:22:38;12.35;;;9.27;;
33006;SDS011;19361;51.598;7.650;2024-01-30T00:27:38;11.52;;;9.70;;
33006;SDS011;19361;51.598;7.650;2024-01-30T00:32:39;12.77;;;9.55;;
33006;SDS011;19361;51.598;7.650;2024-01-30T00:37:40;15.55;;;11.75;;
33006;SDS011;19361;51.598;7.650;2024-01-30T00:42:43;16.92;;;11.38;;
33006;SDS011;19361;51.598;7.650;2024-01-30T00:47:44;14.95;;;10.82;;
33006;SDS011;19361;51.598;7.650;2024-01-30T00:52:45;13.38;;;10.50;;
33006;SDS011;19361;51.598;7.650;2024-01-30T00:57:46;13.75;;;11.07;;
33006;SDS011;19361;51.598;7.650;2024-01-30T01:02:47;13.98;;;11.02;;
33006;SDS011;19361;51.598;7.650;2024-01-30T01:07:47;13.80;;;10.35;;
33006;SDS011;19361;51.598;7.650;2024-01-30T01:12:48;15.13;;;11.55;;
33006;SDS011;19361;51.598;7.650;2024-01-30T01:17:49;16.10;;;10.52;;
33006;SDS011;19361;51.598;7.650;2024-01-30T01:22:50;13.63;;;10.52;;
33006;SDS011;19361;51.598;7.650;2024-01-30T01:27:52;14.25;;;10.00;;
33006;SDS011;19361;51.598;7.650;2024-01-30T01:32:53;13.00;;;9.40;;
33006;SDS011;19361;51.598;7.650;2024-01-30T01:37:57;12.98;;;9.25;;
33006;SDS011;19361;51.598;7.650;2024-01-30T01:43:02;13.30;;;9.43;;
33006;SDS011;19361;51.598;7.650;2024-01-30T01:48:04;16.73;;;10.20;;
33006;SDS011;19361;51.598;7.650;2024-01-30T01:53:06;14.00;;;11.10;;
33006;SDS011;19361;51.598;7.650;2024-01-30T01:58:08;14.55;;;11.68;;
33006;SDS011;19361;51.598;7.650;2024-01-30T02:03:10;14.48;;;11.65;;
33006;SDS011;19361;51.598;7.650;2024-01-30T02:08:12;18.08;;;11.07;;
33006;SDS011;19361;51.598;7.650;2024-01-30T02:13:12;12.57;;;9.20;;
33006;SDS011;19361;51.598;7.650;2024-01-30T02:18:13;9.90;;;7.82;;
33006;SDS011;19361;51.598;7.650;2024-01-30T02:23:15;16.92;;;8.38;;
33006;SDS011;19361;51.598;7.650;2024-01-30T02:28:16;11.18;;;8.15;;
33006;SDS011;19361;51.598;7.650;2024-01-30T02:33:16;13.65;;;9.10;;
33006;SDS011;19361;51.598;7.650;2024-01-30T02:38:17;17.00;;;9.45;;
33006;SDS011;19361;51.598;7.650;2024-01-30T02:43:18;13.48;;;10.00;;
33006;SDS011;19361;51.598;7.650;2024-01-30T02:48:19;17.67;;;10.95;;
33006;SDS011;19361;51.598;7.650;2024-01-30T02:53:19;15.30;;;11.30;;
33006;SDS011;19361;51.598;7.650;2024-01-30T02:58:20;16.77;;;11.73;;
33006;SDS011;19361;51.598;7.650;2024-01-30T03:03:21;17.52;;;11.23;;
33006;SDS011;19361;51.598;7.650;2024-01-30T03:08:21;18.95;;;11.48;;
33006;SDS011;19361;51.598;7.650;2024-01-30T03:13:22;14.13;;;10.30;;
33006;SDS011;19361;51.598;7.650;2024-01-30T03:18:25;13.85;;;10.73;;
33006;SDS011;19361;51.598;7.650;2024-01-30T03:23:25;18.45;;;11.25;;
33006;SDS011;19361;51.598;7.650;2024-01-30T03:28:26;17.88;;;11.05;;
33006;SDS011;19361;51.598;7.650;2024-01-30T03:33:26;12.98;;;10.43;;
33006;SDS011;19361;51.598;7.650;2024-01-30T03:38:28;14.38;;;11.18;;
33006;SDS011;19361;51.598;7.650;2024-01-30T03:43:29;14.55;;;10.38;;
33006;SDS011;19361;51.598;7.650;2024-01-30T03:48:29;16.35;;;11.13;;
33006;SDS011;19361;51.598;7.650;2024-01-30T03:53:30;13.98;;;9.98;;
33006;SDS011;19361;51.598;7.650;2024-01-30T03:58:31;13.35;;;9.70;;
33006;SDS011;19361;51.598;7.650;2024-01-30T04:03:32;11.63;;;9.35;;
33006;SDS011;19361;51.598;7.650;2024-01-30T04:08:32;14.60;;;9.80;;
33006;SDS011;19361;51.598;7.650;2024-01-30T04:13:33;12.05;;;9.38;;
33006;SDS011;19361;51.598;7.650;2024-01-30T04:18:34;15.95;;;10.48;;
33006;SDS011;19361;51.598;7.650;2024-01-30T04:23:34;15.20;;;9.85;;
33006;SDS011;19361;51.598;7.650;2024-01-30T04:28:35;12.35;;;8.25;;
33006;SDS011;19361;51.598;7.650;2024-01-30T04:33:36;12.80;;;8.57;;
33006;SDS011;19361;51.598;7.650;2024-01-30T04:38:37;13.77;;;9.38;;
33006;SDS011;19361;51.598;7.650;2024-01-30T04:43:39;14.85;;;10.73;;
33006;SDS011;19361;51.598;7.650;2024-01-30T04:48:39;18.17;;;10.50;;
33006;SDS011;19361;51.598;7.650;2024-01-30T04:53:40;15.27;;;10.35;;
33006;SDS011;19361;51.598;7.650;2024-01-30T04:58:41;18.00;;;13.30;;
33006;SDS011;19361;51.598;7.650;2024-01-30T05:03:41;16.80;;;11.10;;
33006;SDS011;19361;51.598;7.650;2024-01-30T05:08:42;10.57;;;8.60;;
33006;SDS011;19361;51.598;7.650;2024-01-30T05:13:43;11.95;;;8.15;;
33006;SDS011;19361;51.598;7.650;2024-01-30T05:18:43;13.52;;;7.97;;
33006;SDS011;19361;51.598;7.650;2024-01-30T05:23:44;11.23;;;7.93;;
33006;SDS011;19361;51.598;7.650;2024-01-30T05:28:45;9.85;;;7.32;;
33006;SDS011;19361;51.598;7.650;2024-01-30T05:33:45;10.95;;;7.57;;
33006;SDS011;19361;51.598;7.650;2024-01-30T05:38:46;8.18;;;7.22;;
33006;SDS011;19361;51.598;7.650;2024-01-30T05:43:47;11.30;;;6.85;;
33006;SDS011;19361;51.598;7.650;2024-01-30T05:48:48;11.13;;;7.18;;
33006;SDS011;19361;51.598;7.650;2024-01-30T05:53:48;10.38;;;7.53;;
33006;SDS011;19361;51.598;7.650;2024-01-30T05:58:49;13.15;;;8.30;;
33006;SDS011;19361;51.598;7.650;2024-01-30T06:03:50;14.95;;;8.57;;
33006;SDS011;19361;51.598;7.650;2024-01-30T06:08:51;13.50;;;10.02;;
33006;SDS011;19361;51.598;7.650;2024-01-30T06:13:51;14.32;;;9.98;;
33006;SDS011;19361;51.598;7.650;2024-01-30T06:18:52;8.95;;;7.63;;
33006;SDS011;19361;51.598;7.650;2024-01-30T06:23:53;13.13;;;7.05;;
33006;SDS011;19361;51.598;7.650;2024-01-30T06:28:53;8.50;;;7.07;;
33006;SDS011;19361;51.598;7.650;2024-01-30T06:33:54;9.85;;;6.45;;
33006;SDS011;19361;51.598;7.650;2024-01-30T06:38:55;8.45;;;6.55;;
33006;SDS011;19361;51.598;7.650;2024-01-30T06:43:56;9.45;;;6.00;;
33006;SDS011;19361;51.598;7.650;2024-01-30T06:48:56;8.57;;;6.22;;
33006;SDS011;19361;51.598;7.650;2024-01-30T06:53:57;7.30;;;6.18;;
33006;SDS011;19361;51.598;7.650;2024-01-30T06:58:58;8.95;;;7.00;;
33006;SDS011;19361;51.598;7.650;2024-01-30T07:03:59;9.88;;;6.20;;
33006;SDS011;19361;51.598;7.650;2024-01-30T07:09:00;9.38;;;6.68;;
33006;SDS011;19361;51.598;7.650;2024-01-30T07:14:01;10.18;;;7.15;;
33006;SDS011;19361;51.598;7.650;2024-01-30T07:19:04;9.18;;;6.65;;
33006;SDS011;19361;51.598;7.650;2024-01-30T07:24:05;10.63;;;6.35;;
33006;SDS011;19361;51.598;7.650;2024-01-30T07:29:06;9.48;;;6.75;;
33006;SDS011;19361;51.598;7.650;2024-01-30T07:34:07;9.70;;;7.65;;
33006;SDS011;19361;51.598;7.650;2024-01-30T07:39:09;9.07;;;7.13;;
33006;SDS011;19361;51.598;7.650;2024-01-30T07:44:10;12.00;;;7.15;;
33006;SDS011;19361;51.598;7.650;2024-01-30T07:49:11;10.25;;;8.60;;
33006;SDS011;19361;51.598;7.650;2024-01-30T07:54:11;14.32;;;8.60;;
33006;SDS011;19361;51.598;7.650;2024-01-30T07:59:12;13.13;;;8.18;;
33006;SDS011;19361;51.598;7.650;2024-01-30T08:04:13;12.05;;;7.63;;
33006;SDS011;19361;51.598;7.650;2024-01-30T08:09:14;8.07;;;6.43;;
33006;SDS011;19361;51.598;7.650;2024-01-30T08:14:14;6.90;;;6.00;;
33006;SDS011;19361;51.598;7.650;2024-01-30T08:19:15;8.77;;;5.68;;
33006;SDS011;19361;51.598;7.650;2024-01-30T08:24:16;7.68;;;5.82;;
33006;SDS011;19361;51.598;7.650;2024-01-30T08:29:17;8.70;;;6.20;;
33006;SDS011;19361;51.598;7.650;2024-01-30T08:34:17;8.45;;;6.05;;
33006;SDS011;19361;51.598;7.650;2024-01-30T08:39:18;6.90;;;6.00;;
33006;SDS011;19361;51.598;7.650;2024-01-30T08:44:19;8.25;;;6.07;;
33006;SDS011;19361;51.598;7.650;2024-01-30T08:49:20;7.82;;;5.82;;
33006;SDS011;19361;51.598;7.650;2024-01-30T08:54:21;7.70;;;6.00;;
33006;SDS011;19361;51.598;7.650;2024-01-30T08:59:21;11.43;;;6.25;;
33006;SDS011;19361;51.598;7.650;2024-01-30T09:04:22;10.68;;;7.20;;
33006;SDS011;19361;51.598;7.650;2024-01-30T09:09:23;10.57;;;6.10;;
33006;SDS011;19361;51.598;7.650;2024-01-30T09:14:24;13.35;;;6.25;;
33006;SDS011;19361;51.598;7.650;2024-01-30T09:19:24;9.05;;;5.88;;
33006;SDS011;19361;51.598;7.650;2024-01-30T09:24:25;9.82;;;5.47;;
33006;SDS011;19361;51.598;7.650;2024-01-30T09:29:27;8.13;;;5.22;;
33006;SDS011;19361;51.598;7.650;2024-01-30T09:34:27;8.40;;;5.68;;
33006;SDS011;19361;51.598;7.650;2024-01-30T09:39:28;9.73;;;5.63;;
33006;SDS011;19361;51.598;7.650;2024-01-30T09:44:29;5.97;;;5.10;;
33006;SDS011;19361;51.598;7.650;2024-01-30T09:49:33;7.72;;;6.05;;
33006;SDS011;19361;51.598;7.650;2024-01-30T09:54:35;9.73;;;6.25;;
33006;SDS011;19361;51.598;7.650;2024-01-30T09:59:36;7.72;;;5.80;;
33006;SDS011;19361;51.598;7.650;2024-01-30T10:04:37;12.68;;;5.47;;
33006;SDS011;19361;51.598;7.650;2024-01-30T10:09:37;9.00;;;5.55;;
33006;SDS011;19361;51.598;7.650;2024-01-30T10:14:39;10.20;;;5.90;;
33006;SDS011;19361;51.598;7.650;2024-01-30T10:19:41;11.82;;;6.00;;
33006;SDS011;19361;51.598;7.650;2024-01-30T10:24:42;10.60;;;6.00;;
33006;SDS011;19361;51.598;7.650;2024-01-30T10:29:48;9.50;;;5.45;;
33006;SDS011;19361;51.598;7.650;2024-01-30T10:34:49;10.82;;;5.85;;
33006;SDS011;19361;51.598;7.650;2024-01-30T10:39:49;7.72;;;5.57;;
33006;SDS011;19361;51.598;7.650;2024-01-30T10:45:08;9.57;;;5.65;;
33006;SDS011;19361;51.598;7.650;2024-01-30T10:55:14;7.30;;;5.07;;
33006;SDS011;19361;51.598;7.650;2024-01-30T11:00:16;7.65;;;5.20;;
33006;SDS011;19361;51.598;7.650;2024-01-30T11:05:23;7.45;;;5.38;;
33006;SDS011;19361;51.598;7.650;2024-01-30T11:10:26;10.07;;;5.30;;
33006;SDS011;19361;51.598;7.650;2024-01-30T11:15:27;9.00;;;4.90;;
33006;SDS011;19361;51.598;7.650;2024-01-30T11:20:31;10.85;;;5.10;;
33006;SDS011;19361;51.598;7.650;2024-01-30T11:25:33;6.80;;;5.07;;
33006;SDS011;19361;51.598;7.650;2024-01-30T11:30:34;9.75;;;5.88;;
33006;SDS011;19361;51.598;7.650;2024-01-30T11:35:35;7.68;;;5.07;;
33006;SDS011;19361;51.598;7.650;2024-01-30T11:40:40;9.05;;;5.28;;
33006;SDS011;19361;51.598;7.650;2024-01-30T11:45:41;8.05;;;5.50;;
33006;SDS011;19361;51.598;7.650;2024-01-30T11:50:43;6.85;;;5.03;;
33006;SDS011;19361;51.598;7.650;2024-01-30T11:55:50;6.85;;;4.95;;
33006;SDS011;19361;51.598;7.650;2024-01-30T12:00:57;12.85;;;5.95;;
33006;SDS011;19361;51.598;7.650;2024-01-30T12:05:58;8.33;;;5.70;;
33006;SDS011;19361;51.598;7.650;2024-01-30T12:10:59;12.73;;;5.18;;
33006;SDS011;19361;51.598;7.650;2024-01-30T12:16:05;9.02;;;5.50;;
33006;SDS011;19361;51.598;7.650;2024-01-30T12:21:06;9.88;;;4.68;;
33006;SDS011;19361;51.598;7.650;2024-01-30T12:26:08;12.07;;;4.60;;
33006;SDS011;19361;51.598;7.650;2024-01-30T12:31:11;12.32;;;5.70;;
33006;SDS011;19361;51.598;7.650;2024-01-30T12:36:11;15.65;;;5.50;;
33006;SDS011;19361;51.598;7.650;2024-01-30T12:41:12;11.73;;;6.00;;
33006;SDS011;19361;51.598;7.650;2024-01-30T12:46:13;9.25;;;4.82;;
33006;SDS011;19361;51.598;7.650;2024-01-30T12:51:13;11.15;;;6.88;;
33006;SDS011;19361;51.598;7.650;2024-01-30T12:56:14;14.85;;;6.15;;
33006;SDS011;19361;51.598;7.650;2024-01-30T13:01:15;16.63;;;6.50;;
33006;SDS011;19361;51.598;7.650;2024-01-30T13:06:16;14.15;;;6.32;;
33006;SDS011;19361;51.598;7.650;2024-01-30T13:11:17;15.95;;;6.47;;
33006;SDS011;19361;51.598;7.650;2024-01-30T13:16:18;15.32;;;6.68;;
33006;SDS011;19361;51.598;7.650;2024-01-30T13:21:18;11.85;;;5.65;;
33006;SDS011;19361;51.598;7.650;2024-01-30T13:26:19;10.45;;;5.53;;
33006;SDS011;19361;51.598;7.650;2024-01-30T13:31:21;12.60;;;6.28;;
33006;SDS011;19361;51.598;7.650;2024-01-30T13:36:21;13.60;;;6.40;;
33006;SDS011;19361;51.598;7.650;2024-01-30T13:41:22;14.00;;;6.63;;
33006;SDS011;19361;51.598;7.650;2024-01-30T13:46:23;7.93;;;5.38;;
33006;SDS011;19361;51.598;7.650;2024-01-30T13:51:24;9.77;;;6.13;;
33006;SDS011;19361;51.598;7.650;2024-01-30T13:56:24;12.10;;;6.22;;
33006;SDS011;19361;51.598;7.650;2024-01-30T14:01:26;13.13;;;6.38;;
33006;SDS011;19361;51.598;7.650;2024-01-30T14:06:27;11.18;;;5.95;;
33006;SDS011;19361;51.598;7.650;2024-01-30T14:11:28;11.43;;;6.90;;
33006;SDS011;19361;51.598;7.650;2024-01-30T14:16:28;12.48;;;6.88;;
33006;SDS011;19361;51.598;7.650;2024-01-30T14:21:29;11.73;;;6.55;;
33006;SDS011;19361;51.598;7.650;2024-01-30T14:26:30;12.82;;;6.45;;
33006;SDS011;19361;51.598;7.650;2024-01-30T14:31:30;10.30;;;6.05;;
33006;SDS011;19361;51.598;7.650;2024-01-30T14:36:31;12.80;;;6.80;;
33006;SDS011;19361;51.598;7.650;2024-01-30T14:41:32;11.55;;;6.40;;
33006;SDS011;19361;51.598;7.650;2024-01-30T14:46:32;10.48;;;6.68;;
33006;SDS011;19361;51.598;7.650;2024-01-30T14:51:33;18.17;;;8.00;;
33006;SDS011;19361;51.598;7.650;2024-01-30T14:56:34;14.25;;;7.30;;
33006;SDS011;19361;51.598;7.650;2024-01-30T15:01:35;9.25;;;7.45;;
33006;SDS011;19361;51.598;7.650;2024-01-30T15:06:35;13.65;;;7.15;;
33006;SDS011;19361;51.598;7.650;2024-01-30T15:11:37;10.90;;;7.18;;
33006;SDS011;19361;51.598;7.650;2024-01-30T15:16:37;11.02;;;6.50;;
33006;SDS011;19361;51.598;7.650;2024-01-30T15:21:38;12.73;;;7.70;;
33006;SDS011;19361;51.598;7.650;2024-01-30T15:26:39;10.05;;;6.43;;
33006;SDS011;19361;51.598;7.650;2024-01-30T15:31:40;12.27;;;7.45;;
33006;SDS011;19361;51.598;7.650;2024-01-30T15:36:41;15.52;;;7.03;;
33006;SDS011;19361;51.598;7.650;2024-01-30T15:41:41;14.95;;;7.22;;
33006;SDS011;19361;51.598;7.650;2024-01-30T15:46:42;11.65;;;6.85;;
33006;SDS011;19361;51.598;7.650;2024-01-30T15:51:43;12.20;;;7.30;;
33006;SDS011;19361;51.598;7.650;2024-01-30T15:56:43;15.55;;;6.72;;
33006;SDS011;19361;51.598;7.650;2024-01-30T16:01:44;14.98;;;7.50;;
33006;SDS011;19361;51.598;7.650;2024-01-30T16:06:48;11.23;;;6.93;;
33006;SDS011;19361;51.598;7.650;2024-01-30T16:11:49;12.38;;;7.43;;
33006;SDS011;19361;51.598;7.650;2024-01-30T16:16:50;11.82;;;7.22;;
33006;SDS011;19361;51.598;7.650;2024-01-30T16:21:51;17.77;;;6.72;;
33006;SDS011;19361;51.598;7.650;2024-01-30T16:26:51;9.77;;;5.82;;
33006;SDS011;19361;51.598;7.650;2024-01-30T16:31:52;9.95;;;5.30;;
33006;SDS011;19361;51.598;7.650;2024-01-30T16:36:53;5.13;;;3.72;;
33006;SDS011;19361;51.598;7.650;2024-01-30T16:41:53;8.60;;;3.15;;
33006;SDS011;19361;51.598;7.650;2024-01-30T16:46:54;4.07;;;2.33;;
33006;SDS011;19361;51.598;7.650;2024-01-30T16:51:55;6.32;;;2.80;;
33006;SDS011;19361;51.598;7.650;2024-01-30T16:56:55;2.92;;;2.30;;
33006;SDS011;19361;51.598;7.650;2024-01-30T17:01:56;6.10;;;2.90;;
33006;SDS011;19361;51.598;7.650;2024-01-30T17:06:57;6.20;;;2.40;;
33006;SDS011;19361;51.598;7.650;2024-01-30T17:11:59;2.58;;;1.90;;
33006;SDS011;19361;51.598;7.650;2024-01-30T17:17:03;4.35;;;1.73;;
33006;SDS011;19361;51.598;7.650;2024-01-30T17:22:03;3.60;;;1.40;;
33006;SDS011;19361;51.598;7.650;2024-01-30T17:27:06;3.53;;;1.50;;
33006;SDS011;19361;51.598;7.650;2024-01-30T17:32:06;4.28;;;1.95;;
33006;SDS011;19361;51.598;7.650;2024-01-30T17:37:07;4.70;;;1.50;;
33006;SDS011;19361;51.598;7.650;2024-01-30T17:42:08;2.60;;;1.90;;
33006;SDS011;19361;51.598;7.650;2024-01-30T17:47:09;9.57;;;2.58;;
33006;SDS011;19361;51.598;7.650;2024-01-30T17:52:09;5.85;;;1.90;;
33006;SDS011;19361;51.598;7.650;2024-01-30T17:57:10;4.20;;;1.83;;
33006;SDS011;19361;51.598;7.650;2024-01-30T18:02:11;3.45;;;1.90;;
33006;SDS011;19361;51.598;7.650;2024-01-30T18:07:13;6.45;;;2.22;;
33006;SDS011;19361;51.598;7.650;2024-01-30T18:12:14;1.50;;;1.30;;
33006;SDS011;19361;51.598;7.650;2024-01-30T18:17:15;3.75;;;1.90;;
33006;SDS011;19361;51.598;7.650;2024-01-30T18:22:16;8.13;;;2.15;;
33006;SDS011;19361;51.598;7.650;2024-01-30T18:27:16;5.65;;;3.30;;
33006;SDS011;19361;51.598;7.650;2024-01-30T18:32:17;5.60;;;4.18;;
33006;SDS011;19361;51.598;7.650;2024-01-30T18:37:18;5.35;;;4.75;;
33006;SDS011;19361;51.598;7.650;2024-01-30T18:42:18;8.95;;;5.85;;
33006;SDS011;19361;51.598;7.650;2024-01-30T18:47:19;8.75;;;6.10;;
33006;SDS011;19361;51.598;7.650;2024-01-30T18:52:20;8.32;;;7.53;;
33006;SDS011;19361;51.598;7.650;2024-01-30T18:57:21;10.73;;;7.97;;
33006;SDS011;19361;51.598;7.650;2024-01-30T19:02:22;10.50;;;8.25;;
33006;SDS011;19361;51.598;7.650;2024-01-30T19:07:23;8.27;;;7.47;;
33006;SDS011;19361;51.598;7.650;2024-01-30T19:12:23;8.90;;;6.20;;
33006;SDS011;19361;51.598;7.650;2024-01-30T19:17:24;5.57;;;4.60;;
33006;SDS011;19361;51.598;7.650;2024-01-30T19:22:25;6.90;;;4.18;;
33006;SDS011;19361;51.598;7.650;2024-01-30T19:27:25;6.32;;;4.18;;
33006;SDS011;19361;51.598;7.650;2024-01-30T19:32:27;4.75;;;3.97;;
33006;SDS011;19361;51.598;7.650;2024-01-30T19:37:28;5.53;;;3.38;;
33006;SDS011;19361;51.598;7.650;2024-01-30T19:42:32;4.63;;;3.60;;
33006;SDS011;19361;51.598;7.650;2024-01-30T19:47:33;4.30;;;3.88;;
33006;SDS011;19361;51.598;7.650;2024-01-30T19:52:34;4.72;;;3.72;;
33006;SDS011;19361;51.598;7.650;2024-01-30T19:57:36;5.07;;;4.57;;
33006;SDS011;19361;51.598;7.650;2024-01-30T20:02:37;5.18;;;4.53;;
33006;SDS011;19361;51.598;7.650;2024-01-30T20:07:38;7.90;;;4.78;;
33006;SDS011;19361;51.598;7.650;2024-01-30T20:12:39;5.40;;;4.43;;
33006;SDS011;19361;51.598;7.650;2024-01-30T20:17:42;5.40;;;4.90;;
33006;SDS011;19361;51.598;7.650;2024-01-30T20:22:44;7.15;;;4.78;;
33006;SDS011;19361;51.598;7.650;2024-01-30T20:27:46;5.38;;;4.57;;
33006;SDS011;19361;51.598;7.650;2024-01-30T20:32:47;8.95;;;5.75;;
33006;SDS011;19361;51.598;7.650;2024-01-30T20:37:49;8.88;;;6.20;;
33006;SDS011;19361;51.598;7.650;2024-01-30T20:42:51;6.97;;;6.28;;
33006;SDS011;19361;51.598;7.650;2024-01-30T20:47:51;5.93;;;5.43;;
33006;SDS011;19361;51.598;7.650;2024-01-30T20:52:52;11.35;;;7.57;;
33006;SDS011;19361;51.598;7.650;2024-01-30T20:57:53;9.88;;;8.32;;
33006;SDS011;19361;51.598;7.650;2024-01-30T21:02:53;12.25;;;9.10;;
33006;SDS011;19361;51.598;7.650;2024-01-30T21:07:54;11.65;;;9.02;;
33006;SDS011;19361;51.598;7.650;2024-01-30T21:12:55;11.15;;;9.13;;
33006;SDS011;19361;51.598;7.650;2024-01-30T21:17:56;9.80;;;8.77;;
33006;SDS011;19361;51.598;7.650;2024-01-30T21:22:57;10.10;;;8.68;;
33006;SDS011;19361;51.598;7.650;2024-01-30T21:27:57;10.38;;;9.18;;
33006;SDS011;19361;51.598;7.650;2024-01-30T21:32:58;10.88;;;9.30;;
33006;SDS011;19361;51.598;7.650;2024-01-30T21:38:00;13.60;;;9.32;;
33006;SDS011;19361;51.598;7.650;2024-01-30T21:43:00;11.52;;;9.38;;
33006;SDS011;19361;51.598;7.650;2024-01-30T21:48:01;13.07;;;10.38;;
33006;SDS011;19361;51.598;7.650;2024-01-30T21:53:02;13.50;;;12.10;;
33006;SDS011;19361;51.598;7.650;2024-01-30T21:58:04;13.88;;;11.68;;
33006;SDS011;19361;51.598;7.650;2024-01-30T22:03:04;19.52;;;13.32;;
33006;SDS011;19361;51.598;7.650;2024-01-30T22:08:05;15.48;;;13.57;;
33006;SDS011;19361;51.598;7.650;2024-01-30T22:13:06;16.40;;;13.57;;
33006;SDS011;19361;51.598;7.650;2024-01-30T22:18:06;16.35;;;13.85;;
33006;SDS011;19361;51.598;7.650;2024-01-30T22:23:08;15.23;;;13.02;;
33006;SDS011;19361;51.598;7.650;2024-01-30T22:28:09;14.00;;;12.48;;
33006;SDS011;19361;51.598;7.650;2024-01-30T22:33:09;16.30;;;13.93;;
33006;SDS011;19361;51.598;7.650;2024-01-30T22:38:11;17.13;;;14.23;;
33006;SDS011;19361;51.598;7.650;2024-01-30T22:43:11;14.63;;;12.88;;
33006;SDS011;19361;51.598;7.650;2024-01-30T22:48:12;18.42;;;15.13;;
33006;SDS011;19361;51.598;7.650;2024-01-30T22:53:13;19.27;;;14.18;;
33006;SDS011;19361;51.598;7.650;2024-01-30T22:58:13;18.33;;;14.63;;
33006;SDS011;19361;51.598;7.650;2024-01-30T23:03:14;17.92;;;15.25;;
33006;SDS011;19361;51.598;7.650;2024-01-30T23:08:15;19.98;;;15.15;;
33006;SDS011;19361;51.598;7.650;2024-01-30T23:13:16;16.13;;;14.43;;
33006;SDS011;19361;51.598;7.650;2024-01-30T23:18:17;15.80;;;13.73;;
33006;SDS011;19361;51.598;7.650;2024-01-30T23:23:17;12.82;;;11.05;;
33006;SDS011;19361;51.598;7.650;2024-01-30T23:28:18;10.23;;;8.80;;
33006;SDS011;19361;51.598;7.650;2024-01-30T23:33:19;9.63;;;8.63;;
33006;SDS011;19361;51.598;7.650;2024-01-30T23:38:20;13.90;;;9.25;;
33006;SDS011;19361;51.598;7.650;2024-01-30T23:43:20;13.60;;;8.98;;
33006;SDS011;19361;51.598;7.650;2024-01-30T23:48:21;11.23;;;9.68;;
33006;SDS011;19361;51.598;7.650;2024-01-30T23:53:22;13.52;;;11.07;;
33006;SDS011;19361;51.598;7.650;2024-01-30T23:58:22;17.00;;;12.10;;
